createdAt,value
2024-01-03T00:00:27.871Z,3.70
2024-01-03T00:02:55.617Z,3.42
2024-01-03T00:05:25.668Z,3.22
2024-01-03T00:07:52.696Z,3.58
2024-01-03T00:10:31.471Z,3.20
2024-01-03T00:12:58.400Z,2.95
2024-01-03T00:16:02.485Z,3.28
2024-01-03T00:18:36.254Z,3.63
2024-01-03T00:21:10.918Z,3.67
2024-01-03T00:23:39.278Z,3.25
2024-01-03T00:26:10.393Z,3.47
2024-01-03T00:28:39.772Z,3.58
2024-01-03T00:31:06.718Z,3.22
2024-01-03T00:33:34.742Z,3.80
2024-01-03T00:36:01.794Z,3.58
2024-01-03T00:38:28.740Z,3.50
2024-01-03T00:40:57.120Z,3.58
2024-01-03T00:43:24.136Z,3.40
2024-01-03T00:45:51.052Z,3.08
2024-01-03T00:48:18.571Z,3.78
2024-01-03T00:50:45.672Z,3.38
2024-01-03T00:53:13.845Z,3.53
2024-01-03T00:55:41.866Z,3.70
2024-01-03T00:58:09.232Z,3.83
2024-01-03T01:00:37.888Z,3.72
2024-01-03T01:03:05.591Z,3.38
2024-01-03T01:05:32.876Z,3.45
2024-01-03T01:07:59.930Z,3.75
2024-01-03T01:10:26.894Z,3.10
2024-01-03T01:12:54.519Z,3.83
2024-01-03T01:15:23.354Z,3.78
2024-01-03T01:17:50.426Z,4.00
2024-01-03T01:20:17.568Z,3.67
2024-01-03T01:22:44.729Z,3.47
2024-01-03T01:25:11.709Z,4.18
2024-01-03T01:27:38.663Z,3.97
2024-01-03T01:30:06.204Z,4.20
2024-01-03T01:32:33.209Z,4.20
2024-01-03T01:35:00.311Z,4.65
2024-01-03T01:37:27.260Z,4.28
2024-01-03T01:39:54.252Z,5.18
2024-01-03T01:42:21.324Z,3.85
2024-01-03T01:44:48.235Z,4.22
2024-01-03T01:47:15.598Z,4.28
2024-01-03T01:49:42.705Z,3.88
2024-01-03T01:52:10.309Z,4.55
2024-01-03T01:54:37.741Z,4.50
2024-01-03T01:57:05.113Z,4.18
2024-01-03T01:59:32.132Z,4.47
2024-01-03T02:01:59.086Z,3.63
2024-01-03T02:04:25.991Z,3.95
2024-01-03T02:06:53.706Z,4.00
2024-01-03T02:09:20.577Z,3.90
2024-01-03T02:11:47.953Z,4.55
2024-01-03T02:14:14.992Z,4.60
2024-01-03T02:16:42.311Z,3.30
2024-01-03T02:19:09.282Z,4.35
2024-01-03T02:21:36.526Z,3.88
2024-01-03T02:24:04.524Z,4.10
2024-01-03T02:26:31.538Z,3.80
2024-01-03T02:28:58.594Z,4.00
2024-01-03T02:31:25.636Z,3.78
2024-01-03T02:33:52.698Z,3.80
2024-01-03T02:36:19.719Z,3.90
2024-01-03T02:38:48.317Z,3.75
2024-01-03T02:41:15.387Z,3.53
2024-01-03T02:43:42.315Z,3.63
2024-01-03T02:46:09.247Z,3.63
2024-01-03T02:48:39.346Z,4.10
2024-01-03T02:51:06.433Z,3.90
2024-01-03T02:53:33.421Z,3.45
2024-01-03T02:56:00.362Z,3.15
2024-01-03T02:58:27.244Z,3.15
2024-01-03T03:00:54.149Z,3.50
2024-01-03T03:03:21.156Z,2.92
2024-01-03T03:05:48.147Z,2.88
2024-01-03T03:08:15.460Z,3.22
2024-01-03T03:10:42.599Z,3.03
2024-01-03T03:13:09.535Z,2.95
2024-01-03T03:15:36.522Z,2.67
2024-01-03T03:18:03.752Z,2.97
2024-01-03T03:20:30.762Z,3.00
2024-01-03T03:22:57.671Z,2.50
2024-01-03T03:25:24.613Z,2.78
2024-01-03T03:27:51.774Z,2.50
2024-01-03T03:30:18.897Z,2.78
2024-01-03T03:32:47.038Z,2.47
2024-01-03T03:35:14.247Z,2.70
2024-01-03T03:37:41.817Z,2.40
2024-01-03T03:40:09.239Z,2.35
2024-01-03T03:42:38.637Z,2.40
2024-01-03T03:45:06.069Z,2.47
2024-01-03T03:47:33.103Z,2.38
2024-01-03T03:50:00.229Z,2.42
2024-01-03T03:52:27.143Z,2.72
2024-01-03T03:54:54.076Z,2.78
2024-01-03T03:57:20.970Z,2.78
2024-01-03T03:59:47.962Z,2.58
2024-01-03T04:02:14.906Z,2.60
2024-01-03T04:04:41.907Z,3.20
2024-01-03T04:07:08.829Z,2.55
2024-01-03T04:09:36.614Z,2.50
2024-01-03T04:12:03.857Z,2.63
2024-01-03T04:14:30.912Z,2.55
2024-01-03T04:16:57.832Z,2.72
2024-01-03T04:19:24.831Z,2.60
2024-01-03T04:21:51.971Z,2.50
2024-01-03T04:24:19.052Z,2.83
2024-01-03T04:26:45.970Z,2.90
2024-01-03T04:29:12.880Z,3.00
2024-01-03T04:31:40.147Z,2.90
2024-01-03T04:34:07.284Z,2.70
2024-01-03T04:36:34.233Z,2.22
2024-01-03T04:39:01.210Z,2.60
2024-01-03T04:41:28.170Z,2.42
2024-01-03T04:43:55.410Z,2.33
2024-01-03T04:46:22.304Z,2.60
2024-01-03T04:48:49.483Z,2.45
2024-01-03T04:51:20.089Z,2.00
2024-01-03T04:53:47.387Z,2.20
2024-01-03T04:56:14.343Z,2.20
2024-01-03T04:58:41.352Z,2.15
2024-01-03T05:01:08.396Z,2.28
2024-01-03T05:03:35.405Z,1.90
2024-01-03T05:06:02.467Z,2.25
2024-01-03T05:08:29.518Z,2.17
2024-01-03T05:10:56.421Z,2.28
2024-01-03T05:13:23.342Z,2.10
2024-01-03T05:15:50.223Z,2.42
2024-01-03T05:18:17.593Z,2.33
2024-01-03T05:20:44.816Z,2.40
2024-01-03T05:23:11.882Z,2.50
2024-01-03T05:25:38.782Z,2.40
2024-01-03T05:28:05.915Z,2.85
2024-01-03T05:30:32.932Z,2.58
2024-01-03T05:32:59.947Z,2.50
2024-01-03T05:35:26.966Z,2.30
2024-01-03T05:37:53.953Z,2.70
2024-01-03T05:40:22.839Z,2.20
2024-01-03T05:42:50.595Z,2.05
2024-01-03T05:45:17.481Z,2.47
2024-01-03T05:47:44.672Z,2.80
2024-01-03T05:50:11.704Z,2.30
2024-01-03T05:52:38.739Z,2.92
2024-01-03T05:55:07.763Z,2.15
2024-01-03T05:57:34.990Z,2.03
2024-01-03T06:00:02.467Z,2.28
2024-01-03T06:02:32.053Z,2.58
2024-01-03T06:04:59.460Z,2.25
2024-01-03T06:07:26.615Z,2.70
2024-01-03T06:09:53.526Z,2.75
2024-01-03T06:12:20.383Z,2.22
2024-01-03T06:14:47.592Z,2.28
2024-01-03T06:17:14.715Z,2.45
2024-01-03T06:19:41.667Z,2.90
2024-01-03T06:22:08.711Z,1.90
2024-01-03T06:24:35.858Z,2.00
2024-01-03T06:27:03.017Z,2.42
2024-01-03T06:29:29.977Z,2.60
2024-01-03T06:31:57.030Z,2.50
2024-01-03T06:34:23.964Z,2.88
2024-01-03T06:36:50.926Z,2.60
2024-01-03T06:39:17.799Z,2.60
2024-01-03T06:41:44.741Z,2.85
2024-01-03T06:44:11.679Z,2.72
2024-01-03T06:46:38.592Z,3.20
2024-01-03T06:49:05.640Z,2.85
2024-01-03T06:51:32.751Z,3.08
2024-01-03T06:53:59.787Z,4.22
2024-01-03T06:56:26.858Z,2.75
2024-01-03T06:58:53.832Z,2.90
2024-01-03T07:01:20.848Z,2.85
2024-01-03T07:03:48.004Z,3.10
2024-01-03T07:06:15.978Z,3.38
2024-01-03T07:08:43.053Z,3.00
2024-01-03T07:11:10.868Z,3.58
2024-01-03T07:13:37.786Z,3.22
2024-01-03T07:16:04.940Z,3.10
2024-01-03T07:18:34.769Z,3.95
2024-01-03T07:21:01.910Z,3.40
2024-01-03T07:23:28.854Z,3.42
2024-01-03T07:25:55.764Z,3.33
2024-01-03T07:28:22.678Z,3.20
2024-01-03T07:30:49.649Z,3.33
2024-01-03T07:33:17.434Z,3.22
2024-01-03T07:35:44.547Z,3.58
2024-01-03T07:38:11.754Z,3.72
2024-01-03T07:40:38.982Z,3.70
2024-01-03T07:43:05.856Z,3.30
2024-01-03T07:45:32.751Z,3.33
2024-01-03T07:47:59.728Z,3.03
2024-01-03T07:50:26.743Z,3.35
2024-01-03T07:52:53.852Z,3.85
2024-01-03T07:55:20.803Z,3.58
2024-01-03T07:57:47.753Z,3.92
2024-01-03T08:00:15.244Z,3.40
2024-01-03T08:02:42.504Z,3.25
2024-01-03T08:05:09.654Z,3.95
2024-01-03T08:07:36.683Z,3.97
2024-01-03T08:10:03.855Z,3.88
2024-01-03T08:12:30.982Z,4.72
2024-01-03T08:14:58.048Z,3.42
2024-01-03T08:17:25.032Z,4.55
2024-01-03T08:19:52.296Z,4.68
2024-01-03T08:22:19.275Z,4.63
2024-01-03T08:24:46.380Z,4.45
2024-01-03T08:27:13.426Z,4.60
2024-01-03T08:29:40.997Z,4.30
2024-01-03T08:32:08.175Z,5.38
2024-01-03T08:34:35.245Z,4.40
2024-01-03T08:37:02.172Z,4.63
2024-01-03T08:39:29.194Z,4.95
2024-01-03T08:41:56.282Z,5.63
2024-01-03T08:44:23.644Z,5.22
2024-01-03T08:46:50.694Z,4.63
2024-01-03T08:49:18.014Z,6.70
2024-01-03T08:51:47.171Z,4.75
2024-01-03T08:54:14.186Z,5.63
2024-01-03T08:56:41.258Z,4.82
2024-01-03T08:59:08.304Z,4.75
2024-01-03T09:01:37.917Z,4.72
2024-01-03T09:04:05.162Z,5.15
2024-01-03T09:06:36.748Z,4.85
2024-01-03T09:09:04.234Z,5.05
2024-01-03T09:11:31.295Z,4.70
2024-01-03T09:13:58.672Z,5.57
2024-01-03T09:16:28.151Z,5.50
2024-01-03T09:18:55.662Z,4.70
2024-01-03T09:21:22.891Z,5.80
2024-01-03T09:23:51.658Z,5.50
2024-01-03T09:26:21.448Z,4.57
2024-01-03T09:28:49.093Z,4.57
2024-01-03T09:31:16.582Z,5.15
2024-01-03T09:33:43.899Z,5.53
2024-01-03T09:36:20.176Z,5.53
2024-01-03T09:38:50.133Z,4.90
2024-01-03T09:41:17.498Z,5.30
2024-01-03T09:43:44.538Z,4.53
2024-01-03T09:46:12.013Z,4.63
2024-01-03T09:48:42.763Z,5.70
2024-01-03T09:51:10.109Z,5.18
2024-01-03T09:53:37.660Z,4.47
2024-01-03T09:56:04.995Z,4.70
2024-01-03T09:58:31.871Z,4.78
2024-01-03T10:00:58.772Z,5.05
2024-01-03T10:03:25.773Z,4.53
2024-01-03T10:06:11.295Z,5.22
2024-01-03T10:08:41.449Z,5.43
2024-01-03T10:11:21.368Z,4.28
2024-01-03T10:13:52.990Z,5.47
2024-01-03T10:16:25.147Z,4.03
2024-01-03T10:19:12.118Z,4.63
2024-01-03T10:21:49.469Z,4.05
2024-01-03T10:24:20.757Z,4.47
2024-01-03T10:26:48.066Z,5.30
2024-01-03T10:29:16.093Z,3.88
2024-01-03T10:31:43.167Z,4.78
2024-01-03T10:34:18.688Z,4.25
2024-01-03T10:36:47.077Z,4.90
2024-01-03T10:39:18.651Z,3.80
2024-01-03T10:41:47.422Z,3.78
2024-01-03T10:44:15.237Z,4.30
2024-01-03T10:46:42.901Z,3.65
2024-01-03T10:49:10.210Z,3.72
2024-01-03T10:51:46.638Z,3.60
2024-01-03T10:54:16.977Z,3.85
2024-01-03T10:56:53.213Z,3.38
2024-01-03T10:59:24.478Z,3.45
2024-01-03T11:02:22.338Z,4.22
2024-01-03T11:05:02.173Z,3.58
2024-01-03T11:07:35.267Z,3.72
2024-01-03T11:10:02.222Z,4.20
2024-01-03T11:12:32.390Z,4.10
2024-01-03T11:15:34.092Z,4.18
2024-01-03T11:18:09.810Z,4.45
2024-01-03T11:20:36.942Z,3.72
2024-01-03T11:23:05.990Z,4.38
2024-01-03T11:25:49.325Z,4.35
2024-01-03T11:28:36.932Z,4.07
2024-01-03T11:31:04.365Z,3.40
2024-01-03T11:33:33.516Z,3.63
2024-01-03T11:36:01.092Z,3.80
2024-01-03T11:38:44.762Z,3.40
2024-01-03T11:41:18.098Z,4.05
2024-01-03T11:43:45.147Z,3.60
2024-01-03T11:46:13.431Z,4.18
2024-01-03T11:48:40.997Z,4.03
2024-01-03T11:51:27.136Z,3.78
2024-01-03T11:53:56.191Z,3.88
2024-01-03T11:56:31.031Z,4.20
2024-01-03T11:58:59.394Z,3.50
2024-01-03T12:01:26.312Z,3.58
2024-01-03T12:04:09.111Z,3.58
2024-01-03T12:06:36.887Z,3.45
2024-01-03T12:09:04.451Z,3.47
2024-01-03T12:11:32.174Z,3.30
2024-01-03T12:13:59.034Z,3.40
2024-01-03T12:16:26.307Z,3.55
2024-01-03T12:18:54.347Z,3.50
2024-01-03T12:21:21.656Z,3.17
2024-01-03T12:23:55.740Z,3.60
2024-01-03T12:26:22.885Z,3.13
2024-01-03T12:28:55.788Z,3.10
2024-01-03T12:31:24.470Z,3.03
2024-01-03T12:33:51.697Z,3.05
2024-01-03T12:36:18.731Z,3.20
2024-01-03T12:38:45.778Z,3.05
2024-01-03T12:41:12.751Z,3.47
2024-01-03T12:43:39.749Z,3.13
2024-01-03T12:46:06.945Z,3.15
2024-01-03T12:48:34.097Z,3.70
2024-01-03T12:51:01.281Z,3.42
2024-01-03T12:53:28.248Z,2.97
2024-01-03T12:55:55.333Z,3.88
2024-01-03T12:58:22.219Z,2.88
2024-01-03T13:00:49.239Z,2.90
2024-01-03T13:03:16.536Z,3.85
2024-01-03T13:05:43.873Z,3.20
2024-01-03T13:08:11.068Z,3.20
2024-01-03T13:10:38.124Z,3.17
2024-01-03T13:13:07.005Z,2.92
2024-01-03T13:15:34.323Z,3.20
2024-01-03T13:18:02.271Z,3.20
2024-01-03T13:20:29.559Z,3.38
2024-01-03T13:22:56.485Z,3.53
2024-01-03T13:25:23.522Z,3.25
2024-01-03T13:27:50.394Z,3.42
2024-01-03T13:30:17.619Z,3.33
2024-01-03T13:32:45.379Z,3.22
2024-01-03T13:35:12.660Z,3.30
2024-01-03T13:37:39.861Z,3.55
2024-01-03T13:40:07.561Z,3.53
2024-01-03T13:42:34.477Z,4.22
2024-01-03T13:45:01.462Z,3.63
2024-01-03T13:47:28.520Z,2.60
2024-01-03T13:49:55.670Z,2.75
2024-01-03T13:52:22.591Z,2.85
2024-01-03T13:54:49.478Z,2.35
2024-01-03T13:57:16.584Z,2.38
2024-01-03T13:59:43.630Z,1.75
2024-01-03T14:02:11.218Z,1.95
2024-01-03T14:04:41.034Z,2.03
2024-01-03T14:07:08.084Z,1.50
2024-01-03T14:09:35.051Z,1.80
2024-01-03T14:12:02.250Z,1.60
2024-01-03T14:14:30.582Z,1.55
2024-01-03T14:17:01.599Z,1.95
2024-01-03T14:19:28.817Z,1.70
2024-01-03T14:21:55.916Z,1.70
2024-01-03T14:24:22.879Z,2.00
2024-01-03T14:26:49.908Z,1.63
2024-01-03T14:29:17.080Z,1.73
2024-01-03T14:31:44.524Z,1.95
2024-01-03T14:34:12.094Z,2.00
2024-01-03T14:36:39.121Z,1.77
2024-01-03T14:39:09.444Z,1.90
2024-01-03T14:41:36.880Z,1.98
2024-01-03T14:44:06.342Z,2.75
2024-01-03T14:46:36.491Z,1.90
2024-01-03T14:49:04.496Z,1.90
2024-01-03T14:51:31.872Z,2.00
2024-01-03T14:53:59.954Z,2.03
2024-01-03T14:56:29.086Z,2.00
2024-01-03T14:58:57.772Z,2.17
2024-01-03T15:01:24.834Z,2.22
2024-01-03T15:03:51.876Z,2.38
2024-01-03T15:06:19.838Z,2.47
2024-01-03T15:08:49.940Z,2.00
2024-01-03T15:11:16.909Z,2.17
2024-01-03T15:13:45.930Z,2.20
2024-01-03T15:16:15.705Z,1.90
2024-01-03T15:18:42.856Z,2.40
2024-01-03T15:21:10.036Z,2.00
2024-01-03T15:23:37.141Z,2.33
2024-01-03T15:26:06.288Z,2.33
2024-01-03T15:28:33.733Z,2.15
2024-01-03T15:31:00.873Z,2.70
2024-01-03T15:33:30.844Z,2.03
2024-01-03T15:35:58.430Z,2.50
2024-01-03T15:38:25.677Z,2.00
2024-01-03T15:40:53.306Z,2.17
2024-01-03T15:43:20.267Z,1.90
2024-01-03T15:45:47.217Z,1.90
2024-01-03T15:48:15.001Z,1.90
2024-01-03T15:50:42.389Z,1.73
2024-01-03T15:53:10.588Z,2.00
2024-01-03T15:55:38.906Z,1.90
2024-01-03T15:58:05.947Z,2.00
2024-01-03T16:00:32.953Z,2.00
2024-01-03T16:03:00.018Z,1.98
2024-01-03T16:05:27.197Z,2.08
2024-01-03T16:07:56.958Z,1.83
2024-01-03T16:10:24.460Z,1.92
2024-01-03T16:12:51.341Z,2.00
2024-01-03T16:15:18.428Z,2.30
2024-01-03T16:17:45.589Z,2.35
2024-01-03T16:20:14.794Z,2.30
2024-01-03T16:22:41.795Z,2.20
2024-01-03T16:25:12.357Z,2.42
2024-01-03T16:27:40.074Z,2.58
2024-01-03T16:30:07.693Z,2.40
2024-01-03T16:32:35.047Z,2.55
2024-01-03T16:35:02.980Z,2.63
2024-01-03T16:37:32.727Z,3.20
2024-01-03T16:40:00.342Z,3.10
2024-01-03T16:42:27.396Z,3.67
2024-01-03T16:44:54.754Z,3.35
2024-01-03T16:47:21.667Z,3.47
2024-01-03T16:49:48.893Z,3.85
2024-01-03T16:52:15.859Z,4.25
2024-01-03T16:54:42.798Z,5.75
2024-01-03T16:57:09.871Z,5.78
2024-01-03T16:59:37.922Z,4.85
2024-01-03T17:02:04.895Z,4.43
2024-01-03T17:04:32.147Z,5.07
2024-01-03T17:06:59.050Z,3.60
2024-01-03T17:09:25.936Z,4.05
2024-01-03T17:11:53.008Z,3.92
2024-01-03T17:14:20.052Z,3.85
2024-01-03T17:16:47.428Z,2.90
2024-01-03T17:19:14.623Z,2.80
2024-01-03T17:21:41.795Z,2.60
2024-01-03T17:24:08.834Z,3.50
2024-01-03T17:26:37.475Z,2.92
2024-01-03T17:29:05.449Z,2.85
2024-01-03T17:31:38.292Z,2.78
2024-01-03T17:34:06.146Z,3.33
2024-01-03T17:36:33.939Z,3.38
2024-01-03T17:39:00.885Z,3.72
2024-01-03T17:41:28.309Z,3.40
2024-01-03T17:43:56.264Z,3.40
2024-01-03T17:46:23.491Z,4.30
2024-01-03T17:48:52.705Z,3.30
2024-01-03T17:51:21.552Z,3.53
2024-01-03T17:53:50.881Z,3.10
2024-01-03T17:56:25.404Z,3.65
2024-01-03T17:58:52.768Z,3.42
2024-01-03T18:01:20.266Z,2.97
2024-01-03T18:03:47.701Z,3.13
2024-01-03T18:06:15.080Z,2.90
2024-01-03T18:08:42.259Z,3.08
2024-01-03T18:11:09.296Z,3.40
2024-01-03T18:13:36.733Z,3.72
2024-01-03T18:16:04.077Z,3.10
2024-01-03T18:18:31.261Z,3.05
2024-01-03T18:20:58.386Z,2.58
2024-01-03T18:23:25.547Z,3.10
2024-01-03T18:25:52.614Z,3.58
2024-01-03T18:28:19.734Z,2.85
2024-01-03T18:30:47.078Z,3.38
2024-01-03T18:33:15.729Z,2.60
2024-01-03T18:35:42.700Z,3.20
2024-01-03T18:38:10.079Z,3.42
2024-01-03T18:40:38.972Z,3.15
2024-01-03T18:43:06.848Z,3.97
2024-01-03T18:45:33.883Z,3.25
2024-01-03T18:48:01.846Z,3.10
2024-01-03T18:50:29.095Z,3.35
2024-01-03T18:52:56.028Z,3.05
2024-01-03T18:55:22.989Z,2.80
2024-01-03T18:57:50.854Z,2.85
2024-01-03T19:00:18.618Z,3.35
2024-01-03T19:02:46.575Z,2.90
2024-01-03T19:05:13.971Z,2.75
2024-01-03T19:07:43.917Z,4.00
2024-01-03T19:10:11.123Z,3.10
2024-01-03T19:12:40.433Z,3.40
2024-01-03T19:15:08.550Z,4.78
2024-01-03T19:17:35.984Z,3.40
2024-01-03T19:20:05.816Z,2.92
2024-01-03T19:22:37.276Z,3.33
2024-01-03T19:25:07.895Z,3.28
2024-01-03T19:27:34.935Z,3.10
2024-01-03T19:30:04.068Z,3.50
2024-01-03T19:32:32.721Z,3.97
2024-01-03T19:35:00.166Z,3.33
2024-01-03T19:37:27.168Z,3.33
2024-01-03T19:39:54.296Z,3.50
2024-01-03T19:42:21.250Z,2.80
2024-01-03T19:44:48.340Z,3.42
2024-01-03T19:47:15.320Z,3.10
2024-01-03T19:49:42.894Z,3.53
2024-01-03T19:52:09.946Z,3.75
2024-01-03T19:54:36.859Z,3.35
2024-01-03T19:57:04.075Z,3.20
2024-01-03T19:59:31.019Z,3.40
2024-01-03T20:01:58.780Z,2.80
2024-01-03T20:04:25.807Z,3.47
2024-01-03T20:06:53.837Z,3.42
2024-01-03T20:09:20.943Z,2.92
2024-01-03T20:11:48.812Z,3.72
2024-01-03T20:14:16.045Z,2.80
2024-01-03T20:16:43.016Z,3.65
2024-01-03T20:19:10.731Z,3.17
2024-01-03T20:21:45.362Z,3.05
2024-01-03T20:24:13.471Z,2.85
2024-01-03T20:26:41.848Z,3.58
2024-01-03T20:29:09.550Z,2.95
2024-01-03T20:31:36.680Z,3.05
2024-01-03T20:34:05.599Z,2.90
2024-01-03T20:36:32.896Z,2.85
2024-01-03T20:39:05.561Z,2.78
2024-01-03T20:41:32.765Z,2.53
2024-01-03T20:43:59.673Z,2.53
2024-01-03T20:46:26.584Z,2.90
2024-01-03T20:48:53.710Z,2.92
2024-01-03T20:51:21.196Z,2.70
2024-01-03T20:53:48.429Z,3.00
2024-01-03T20:56:15.478Z,2.67
2024-01-03T20:58:42.497Z,2.60
2024-01-03T21:01:12.808Z,2.78
2024-01-03T21:03:40.644Z,2.83
2024-01-03T21:06:08.257Z,2.63
2024-01-03T21:08:38.814Z,2.88
2024-01-03T21:11:07.893Z,2.60
2024-01-03T21:13:35.264Z,2.90
2024-01-03T21:16:04.970Z,2.83
2024-01-03T21:18:34.918Z,2.00
2024-01-03T21:21:01.997Z,2.20
2024-01-03T21:23:29.013Z,2.58
2024-01-03T21:25:56.607Z,2.40
2024-01-03T21:28:24.236Z,2.28
2024-01-03T21:30:53.887Z,2.47
2024-01-03T21:33:20.845Z,2.47
2024-01-03T21:35:47.906Z,2.35
2024-01-03T21:38:14.937Z,2.33
2024-01-03T21:40:41.954Z,2.53
2024-01-03T21:43:08.830Z,2.33
2024-01-03T21:45:35.772Z,2.45
2024-01-03T21:48:02.780Z,2.03
2024-01-03T21:50:29.758Z,2.20
2024-01-03T21:52:57.663Z,2.50
2024-01-03T21:55:25.564Z,2.30
2024-01-03T21:57:52.540Z,1.90
2024-01-03T22:00:20.007Z,1.98
2024-01-03T22:02:48.596Z,2.20
2024-01-03T22:05:19.565Z,2.00
2024-01-03T22:07:46.708Z,2.15
2024-01-03T22:10:15.417Z,2.10
2024-01-03T22:12:49.408Z,2.40
2024-01-03T22:15:17.871Z,2.30
2024-01-03T22:17:45.372Z,1.85
2024-01-03T22:20:13.140Z,2.17
2024-01-03T22:22:41.515Z,2.20
2024-01-03T22:25:09.295Z,2.13
2024-01-03T22:27:36.373Z,2.45
2024-01-03T22:30:03.729Z,2.20
2024-01-03T22:32:30.780Z,2.22
2024-01-03T22:34:58.000Z,2.17
2024-01-03T22:37:24.935Z,3.08
2024-01-03T22:39:51.922Z,2.53
2024-01-03T22:42:18.855Z,2.38
2024-01-03T22:44:46.661Z,2.65
2024-01-03T22:47:13.531Z,2.40
2024-01-03T22:49:40.691Z,2.45
2024-01-03T22:52:08.168Z,2.63
2024-01-03T22:54:36.266Z,2.70
2024-01-03T22:57:03.508Z,2.92
2024-01-03T22:59:30.527Z,2.60
2024-01-03T23:01:57.476Z,2.80
2024-01-03T23:04:24.428Z,2.17
2024-01-03T23:06:51.502Z,2.80
2024-01-03T23:09:18.636Z,2.55
2024-01-03T23:11:48.754Z,2.72
2024-01-03T23:14:15.954Z,2.50
2024-01-03T23:16:42.887Z,2.80
2024-01-03T23:19:10.124Z,2.50
2024-01-03T23:21:38.389Z,2.53
2024-01-03T23:24:06.048Z,2.63
2024-01-03T23:26:33.098Z,2.42
2024-01-03T23:29:00.109Z,2.53
2024-01-03T23:31:27.060Z,2.60
2024-01-03T23:33:54.213Z,2.42
2024-01-03T23:36:21.508Z,2.47
2024-01-03T23:38:48.561Z,2.78
2024-01-03T23:41:18.686Z,2.72
2024-01-03T23:43:47.651Z,2.15
2024-01-03T23:46:15.674Z,2.55
2024-01-03T23:48:43.099Z,2.42
2024-01-03T23:51:10.309Z,2.67
2024-01-03T23:53:37.478Z,1.95
2024-01-03T23:56:04.783Z,2.00
2024-01-03T23:58:31.823Z,2.22
